Time;durP1;ratioP1;P1;durP2;ratioP2;P2;SDS_P1;SDS_P2;PMS_P1;PMS_P2;Temp;Humidity;BMP_temperature;BMP_pressure;BME280_temperature;BME280_humidity;BME280_pressure;Samples;Min_cycle;Max_cycle;Signal;HPM_P1;HPM_P2
2022/12/08 00:00:35;;;;;;;17.87;15.90;;;;;;;-0.27;100.00;100010.53;5069637;28;20271;-74
2022/12/08 00:03:01;;;;;;;19.37;16.37;;;;;;;-0.25;100.00;100017.38;5045579;28;20218;-73
2022/12/08 00:10:54;;;;;;;16.80;14.87;;;;;;;-0.14;100.00;100011.75;5062299;28;20199;-72
2022/12/08 00:13:19;;;;;;;16.50;14.53;;;;;;;-0.14;100.00;100010.09;5057093;28;20208;-74
2022/12/08 00:15:45;;;;;;;17.40;15.57;;;;;;;-0.12;100.00;100011.00;5042662;28;20183;-73
2022/12/08 00:18:10;;;;;;;19.30;15.63;;;;;;;-0.09;100.00;99997.50;5059121;28;20207;-74
2022/12/08 00:20:35;;;;;;;18.47;16.27;;;;;;;-0.08;100.00;99999.22;5065093;28;20612;-73
2022/12/08 00:23:03;;;;;;;19.87;15.87;;;;;;;-0.06;100.00;99992.50;5059298;28;20214;-73
2022/12/08 00:25:28;;;;;;;19.13;15.57;;;;;;;-0.03;100.00;100000.25;5062436;28;20186;-73
2022/12/08 00:27:53;;;;;;;17.30;14.73;;;;;;;0.01;100.00;100002.03;5062762;28;20209;-73
2022/12/08 00:30:19;;;;;;;18.50;15.53;;;;;;;0.06;100.00;99987.78;5062697;28;20190;-73
2022/12/08 00:32:44;;;;;;;18.63;14.77;;;;;;;0.10;100.00;99984.50;5047052;28;20206;-72
2022/12/08 00:35:09;;;;;;;16.43;14.33;;;;;;;0.14;100.00;99981.25;5063144;28;20718;-73
2022/12/08 00:37:34;;;;;;;17.87;15.07;;;;;;;0.13;100.00;99979.50;5084665;28;20572;-73
2022/12/08 00:40:00;;;;;;;15.40;13.53;;;;;;;0.12;100.00;99982.00;5090080;28;20182;-75
2022/12/08 00:42:25;;;;;;;15.63;13.93;;;;;;;0.07;100.00;99978.47;5072898;28;20271;-72
2022/12/08 00:44:50;;;;;;;15.77;13.93;;;;;;;0.05;100.00;99975.03;5064918;28;20249;-73
2022/12/08 00:47:16;;;;;;;18.00;14.53;;;;;;;0.02;100.00;99978.31;5059419;28;20681;-73
2022/12/08 00:49:41;;;;;;;17.87;13.97;;;;;;;-0.03;100.00;99973.09;5062023;28;20201;-72
2022/12/08 00:52:06;;;;;;;16.40;13.47;;;;;;;-0.07;100.00;99972.97;5061347;28;20221;-73
2022/12/08 00:54:32;;;;;;;15.50;13.87;;;;;;;-0.11;100.00;99956.78;5060679;28;20191;-73
2022/12/08 00:56:57;;;;;;;16.27;13.20;;;;;;;-0.13;100.00;99960.06;5061203;28;20623;-73
2022/12/08 00:59:22;;;;;;;16.23;13.43;;;;;;;-0.17;100.00;99952.38;5060883;28;20310;-73
2022/12/08 01:01:48;;;;;;;18.87;13.20;;;;;;;-0.19;100.00;99950.56;5061198;28;20562;-74
2022/12/08 01:04:16;;;;;;;15.27;13.27;;;;;;;-0.22;100.00;99947.94;5064059;28;20889;-72
2022/12/08 01:06:42;;;;;;;14.40;12.90;;;;;;;-0.26;100.00;99947.00;5065285;28;20562;-73
2022/12/08 01:09:08;;;;;;;15.17;12.70;;;;;;;-0.28;100.00;99950.31;5043391;28;20193;-73
2022/12/08 01:11:34;;;;;;;15.30;12.77;;;;;;;-0.31;100.00;99946.88;5047724;28;20238;-73
2022/12/08 01:13:59;;;;;;;14.13;12.10;;;;;;;-0.33;100.00;99945.94;5055716;28;20191;-73
2022/12/08 01:16:27;;;;;;;15.60;13.00;;;;;;;-0.38;100.00;99944.94;5059282;28;20189;-72
2022/12/08 01:18:53;;;;;;;14.97;12.60;;;;;;;-0.42;100.00;99943.16;5062279;28;20283;-74
2022/12/08 01:21:19;;;;;;;15.63;12.33;;;;;;;-0.46;100.00;99943.88;5062149;28;20193;-73
2022/12/08 01:23:45;;;;;;;14.50;12.20;;;;;;;-0.48;100.00;99945.50;5061352;28;20193;-73
2022/12/08 01:26:14;;;;;;;14.60;12.00;;;;;;;-0.52;100.00;99953.84;5059198;28;20196;-74
2022/12/08 01:28:40;;;;;;;13.63;12.13;;;;;;;-0.55;100.00;99953.75;5063100;28;20217;-73
2022/12/08 01:31:14;;;;;;;13.53;12.07;;;;;;;-0.59;100.00;99945.16;5058446;28;20188;-74
2022/12/08 01:33:40;;;;;;;14.43;12.23;;;;;;;-0.62;100.00;99945.09;5063783;28;20202;-73
2022/12/08 01:36:06;;;;;;;15.03;12.63;;;;;;;-0.63;100.00;99953.53;5063526;28;20198;-73
2022/12/08 01:38:32;;;;;;;14.00;12.37;;;;;;;-0.65;100.00;99952.63;5065773;28;20193;-74
2022/12/08 01:40:58;;;;;;;14.40;12.30;;;;;;;-0.67;100.00;99955.09;5065415;28;20185;-72
2022/12/08 01:43:23;;;;;;;15.80;12.97;;;;;;;-0.67;100.00;99954.25;5063826;28;20213;-72
2022/12/08 01:45:49;;;;;;;17.70;14.80;;;;;;;-0.68;100.00;99952.50;5063472;28;20202;-73
2022/12/08 01:48:26;;;;;;;18.40;16.40;;;;;;;-0.66;100.00;99953.41;5060332;28;20295;-73
2022/12/08 01:50:54;;;;;;;22.03;19.73;;;;;;;-0.69;100.00;99954.19;5059511;28;20190;-73
2022/12/08 01:53:29;;;;;;;20.57;18.50;;;;;;;-0.69;100.00;99953.31;5060920;28;20690;-73
2022/12/08 01:56:01;;;;;;;18.23;16.47;;;;;;;-0.72;100.00;99950.69;5060275;28;20200;-73
2022/12/08 01:58:32;;;;;;;17.73;15.93;;;;;;;-0.72;100.00;99946.47;5059353;28;22367;-73
2022/12/08 02:00:57;;;;;;;16.43;14.70;;;;;;;-0.69;100.00;99941.50;5059721;28;20180;-72
2022/12/08 02:03:47;;;;;;;16.43;14.63;;;;;;;-0.68;100.00;99940.66;5039623;28;20218;-73
2022/12/08 02:06:13;;;;;;;15.47;13.87;;;;;;;-0.67;100.00;99944.91;5060536;28;20868;-74
2022/12/08 02:08:40;;;;;;;16.33;13.53;;;;;;;-0.66;100.00;99938.19;5056788;28;20199;-73
2022/12/08 02:11:10;;;;;;;16.27;14.03;;;;;;;-0.66;100.00;99935.63;5057438;28;20189;-73
2022/12/08 02:13:36;;;;;;;16.53;14.10;;;;;;;-0.70;100.00;99929.59;5058742;28;20193;-73
2022/12/08 02:16:46;;;;;;;15.20;13.20;;;;;;;-0.73;100.00;99934.59;5044411;28;20670;-73
2022/12/08 02:19:39;;;;;;;15.17;12.97;;;;;;;-0.74;100.00;99929.44;5061436;28;20187;-73
2022/12/08 02:22:22;;;;;;;15.23;11.70;;;;;;;-0.77;100.00;99927.66;5055450;28;20211;-73
2022/12/08 02:24:59;;;;;;;15.50;12.17;;;;;;;-0.80;100.00;99922.50;5058439;28;20285;-74
2022/12/08 02:27:32;;;;;;;14.83;12.37;;;;;;;-0.82;100.00;99919.03;5055925;28;20225;-72
2022/12/08 02:30:07;;;;;;;14.83;12.13;;;;;;;-0.84;100.00;99919.00;5062636;28;20193;-72
2022/12/08 02:33:00;;;;;;;14.40;11.43;;;;;;;-0.85;100.00;99908.78;5059645;28;20206;-73
2022/12/08 02:35:57;;;;;;;13.80;11.90;;;;;;;-0.84;100.00;99908.84;5073027;28;20192;-73
2022/12/08 02:38:34;;;;;;;14.37;12.20;;;;;;;-0.83;100.00;99907.16;5057913;28;20188;-73
2022/12/08 02:41:23;;;;;;;14.20;12.30;;;;;;;-0.81;100.00;99908.94;5058175;28;20322;-73
2022/12/08 02:44:06;;;;;;;15.73;12.27;;;;;;;-0.78;100.00;99903.06;5062567;28;20228;-73
2022/12/08 02:46:47;;;;;;;13.87;11.73;;;;;;;-0.74;100.00;99899.81;5046129;28;20217;-73
2022/12/08 02:49:14;;;;;;;15.03;12.03;;;;;;;-0.66;100.00;99903.44;5059137;28;20190;-74
2022/12/08 02:51:39;;;;;;;15.37;13.43;;;;;;;-0.53;100.00;99896.22;5063491;28;20230;-72
2022/12/08 02:54:05;;;;;;;14.33;12.83;;;;;;;-0.42;100.00;99891.41;5055321;28;20186;-73
2022/12/08 02:56:33;;;;;;;14.53;12.63;;;;;;;-0.28;100.00;99902.00;5074255;28;20230;-73
2022/12/08 02:59:23;;;;;;;15.80;13.13;;;;;;;-0.15;100.00;99891.34;5091695;28;20227;-75
2022/12/08 03:02:22;;;;;;;14.93;13.37;;;;;;;0.02;100.00;99886.72;5064624;28;20212;-73
2022/12/08 03:04:57;;;;;;;14.03;12.33;;;;;;;0.12;100.00;99878.53;5060556;28;20742;-73
2022/12/08 03:07:40;;;;;;;14.70;13.10;;;;;;;0.25;100.00;99876.31;5075933;28;20216;-72
2022/12/08 03:10:20;;;;;;;14.30;12.80;;;;;;;0.30;100.00;99860.34;5061434;28;20269;-74
2022/12/08 03:12:48;;;;;;;14.60;13.10;;;;;;;0.36;100.00;99866.41;5059866;28;20205;-73
2022/12/08 03:15:18;;;;;;;14.07;12.27;;;;;;;0.40;100.00;99858.91;5055700;28;20196;-74
2022/12/08 03:17:53;;;;;;;15.33;13.27;;;;;;;0.47;100.00;99859.03;5043714;28;20541;-74
2022/12/08 03:20:22;;;;;;;12.97;11.60;;;;;;;0.49;100.00;99858.25;5061527;28;20213;-73
2022/12/08 03:22:51;;;;;;;13.57;10.97;;;;;;;0.51;100.00;99861.72;5063683;28;20243;-74
2022/12/08 03:25:21;;;;;;;15.00;12.70;;;;;;;0.51;100.00;99854.06;5047291;28;20182;-74
2022/12/08 03:27:47;;;;;;;12.87;11.37;;;;;;;0.51;100.00;99848.09;5065347;28;20297;-73
2022/12/08 03:30:13;;;;;;;12.80;11.50;;;;;;;0.51;100.00;99850.66;5064326;28;20190;-73
2022/12/08 03:32:56;;;;;;;12.13;10.93;;;;;;;0.52;100.00;99848.16;5066292;28;20315;-74
2022/12/08 03:35:25;;;;;;;12.97;10.70;;;;;;;0.54;100.00;99848.19;5083327;28;20190;-74
2022/12/08 03:37:50;;;;;;;12.43;11.13;;;;;;;0.57;100.00;99845.72;5054989;28;20181;-75
2022/12/08 03:40:18;;;;;;;11.37;10.17;;;;;;;0.60;100.00;99845.81;5067422;28;20201;-73
2022/12/08 03:42:43;;;;;;;12.20;10.63;;;;;;;0.60;100.00;99838.16;5065153;28;20788;-72
2022/12/08 03:45:09;;;;;;;12.47;11.00;;;;;;;0.60;100.00;99835.63;5066636;28;20185;-73
2022/12/08 03:47:35;;;;;;;10.93;9.83;;;;;;;0.60;100.00;99830.53;5044213;28;20689;-73
2022/12/08 03:50:00;;;;;;;13.17;10.67;;;;;;;0.63;100.00;99832.28;5066219;28;20243;-74
2022/12/08 03:52:26;;;;;;;12.93;10.37;;;;;;;0.64;100.00;99836.53;5062496;28;20210;-73
2022/12/08 03:54:51;;;;;;;12.47;10.37;;;;;;;0.63;100.00;99834.81;5063216;28;20719;-73
2022/12/08 03:57:16;;;;;;;12.00;10.37;;;;;;;0.63;100.00;99838.22;5067541;28;20241;-73
2022/12/08 03:59:42;;;;;;;12.57;11.10;;;;;;;0.59;100.00;99831.34;5064306;28;20178;-73
2022/12/08 04:02:07;;;;;;;11.63;10.43;;;;;;;0.56;100.00;99823.63;5057767;28;20210;-74
2022/12/08 04:04:32;;;;;;;12.23;10.93;;;;;;;0.51;100.00;99825.19;5073608;28;20186;-73
2022/12/08 04:06:58;;;;;;;12.73;10.37;;;;;;;0.47;100.00;99818.28;5045277;28;20568;-73
2022/12/08 04:09:23;;;;;;;11.33;10.17;;;;;;;0.40;100.00;99818.16;5047092;28;20247;-74
2022/12/08 04:11:48;;;;;;;12.30;11.00;;;;;;;0.32;100.00;99816.25;5045607;28;20292;-75
2022/12/08 04:14:14;;;;;;;12.20;10.90;;;;;;;0.22;100.00;99810.94;5060445;28;20186;-74
2022/12/08 04:16:39;;;;;;;11.43;10.10;;;;;;;0.13;100.00;99810.69;5048279;28;20258;-73
2022/12/08 04:19:05;;;;;;;11.77;10.53;;;;;;;0.06;100.00;99812.22;5045701;28;20182;-73
2022/12/08 04:21:30;;;;;;;12.70;10.13;;;;;;;-0.01;100.00;99812.88;5080966;28;20212;-74
2022/12/08 04:23:56;;;;;;;12.73;10.60;;;;;;;-0.09;100.00;99802.50;5063901;28;20273;-74
2022/12/08 04:26:21;;;;;;;13.33;11.03;;;;;;;-0.14;100.00;99804.06;5065721;28;20193;-74
2022/12/08 04:28:46;;;;;;;12.87;11.00;;;;;;;-0.18;100.00;99810.75;5058651;28;20185;-72
2022/12/08 04:31:12;;;;;;;13.00;10.27;;;;;;;-0.23;100.00;99801.28;5058126;28;20183;-73
2022/12/08 04:33:37;;;;;;;13.50;11.00;;;;;;;-0.28;100.00;99805.38;5078362;28;20186;-73
2022/12/08 04:36:04;;;;;;;16.23;12.37;;;;;;;-0.33;100.00;99803.56;5042036;28;20221;-73
2022/12/08 04:38:30;;;;;;;14.63;12.30;;;;;;;-0.38;100.00;99804.25;5045446;28;20184;-72
2022/12/08 04:40:55;;;;;;;16.57;13.17;;;;;;;-0.44;100.00;99799.88;5045329;28;20247;-74
2022/12/08 04:43:21;;;;;;;17.50;13.90;;;;;;;-0.48;100.00;99801.47;5046243;28;21252;-73
2022/12/08 04:45:46;;;;;;;17.00;14.23;;;;;;;-0.52;100.00;99794.56;5043636;28;20193;-73
2022/12/08 04:48:12;;;;;;;20.27;14.97;;;;;;;-0.53;100.00;99794.53;5046890;28;20252;-73
2022/12/08 04:50:42;;;;;;;18.90;15.43;;;;;;;-0.54;100.00;99795.34;5061446;28;20186;-73
2022/12/08 04:53:09;;;;;;;20.83;16.30;;;;;;;-0.57;100.00;99797.81;5060176;28;20201;-73
2022/12/08 04:55:38;;;;;;;19.40;16.23;;;;;;;-0.59;100.00;99796.88;5065242;28;20672;-74
2022/12/08 04:58:03;;;;;;;21.93;17.07;;;;;;;-0.62;100.00;99787.50;5061191;28;20193;-73
2022/12/08 05:00:28;;;;;;;20.97;16.03;;;;;;;-0.65;100.00;99787.41;5063283;28;20222;-73
2022/12/08 05:02:54;;;;;;;20.33;15.40;;;;;;;-0.68;100.00;99789.88;5055932;28;20210;-72
2022/12/08 05:05:19;;;;;;;21.23;16.87;;;;;;;-0.71;100.00;99789.78;5065258;28;20193;-73
2022/12/08 05:07:44;;;;;;;19.47;16.13;;;;;;;-0.73;100.00;99788.84;5064442;28;20323;-74
2022/12/08 05:10:10;;;;;;;20.77;16.83;;;;;;;-0.77;100.00;99780.28;5059674;28;20860;-73
2022/12/08 05:12:35;;;;;;;20.40;16.30;;;;;;;-0.79;100.00;99792.97;5065491;28;20208;-74
2022/12/08 05:15:00;;;;;;;21.97;18.13;;;;;;;-0.81;100.00;99793.72;5089812;28;20209;-74
2022/12/08 05:17:26;;;;;;;25.67;20.83;;;;;;;-0.83;100.00;99795.38;5088456;28;20219;-74
2022/12/08 05:19:51;;;;;;;25.77;19.87;;;;;;;-0.85;100.00;99802.09;5060781;28;20557;-72
2022/12/08 05:22:16;;;;;;;26.77;19.80;;;;;;;-0.88;100.00;99802.84;5060251;28;20206;-72
2022/12/08 05:24:42;;;;;;;29.00;21.43;;;;;;;-0.90;100.00;99794.31;5065648;28;20807;-73
2022/12/08 05:27:08;;;;;;;36.13;27.57;;;;;;;-0.91;100.00;99800.25;5067776;28;20227;-73
2022/12/08 05:29:34;;;;;;;45.30;32.27;;;;;;;-0.92;100.00;99798.50;5045674;28;20188;-73
2022/12/08 05:31:59;;;;;;;41.53;31.23;;;;;;;-0.92;100.00;99798.50;5063708;28;20212;-73
2022/12/08 05:34:25;;;;;;;42.97;32.53;;;;;;;-0.93;100.00;99800.16;5045240;28;20194;-73
2022/12/08 05:36:50;;;;;;;43.07;33.30;;;;;;;-0.95;100.00;99794.19;5048014;28;20191;-72
2022/12/08 05:39:15;;;;;;;38.90;29.27;;;;;;;-0.94;100.00;99792.53;5042492;28;20565;-74
2022/12/08 05:41:41;;;;;;;30.07;24.17;;;;;;;-0.94;100.00;99792.53;5063915;28;20216;-73
2022/12/08 05:44:06;;;;;;;27.23;21.67;;;;;;;-0.94;100.00;99785.75;5065330;28;20208;-73
2022/12/08 05:46:33;;;;;;;23.73;19.37;;;;;;;-0.95;100.00;99790.78;5065530;28;20268;-73
2022/12/08 05:48:59;;;;;;;22.17;18.57;;;;;;;-0.93;100.00;99784.09;5066576;28;20208;-73
2022/12/08 05:51:25;;;;;;;20.13;17.07;;;;;;;-0.92;100.00;99781.56;5060629;28;20191;-73
2022/12/08 05:53:51;;;;;;;20.23;17.93;;;;;;;-0.90;100.00;99779.06;5058690;28;20184;-73
2022/12/08 05:56:17;;;;;;;22.97;18.70;;;;;;;-0.90;100.00;99784.16;5060084;28;20192;-73
2022/12/08 05:58:43;;;;;;;21.20;17.63;;;;;;;-0.87;100.00;99785.94;5063824;28;20235;-73
2022/12/08 06:01:22;;;;;;;21.97;17.53;;;;;;;-0.87;100.00;99781.69;5069125;28;20214;-73
2022/12/08 06:03:51;;;;;;;23.93;18.27;;;;;;;-0.84;100.00;99783.50;5067644;28;20572;-73
2022/12/08 06:06:16;;;;;;;21.07;17.43;;;;;;;-0.79;100.00;99785.34;5067296;28;20296;-72
2022/12/08 06:08:42;;;;;;;21.83;18.40;;;;;;;-0.70;100.00;99789.84;5068948;28;20297;-72
2022/12/08 06:11:07;;;;;;;20.23;17.60;;;;;;;-0.62;100.00;99787.50;5046333;28;20247;-74
2022/12/08 06:13:32;;;;;;;24.23;18.67;;;;;;;-0.53;100.00;99786.91;5063838;28;20720;-73
2022/12/08 06:16:05;;;;;;;21.87;17.07;;;;;;;-0.47;100.00;99776.91;5063103;28;20200;-73
2022/12/08 06:18:31;;;;;;;21.00;17.53;;;;;;;-0.41;100.00;99784.69;5067158;28;20206;-74
2022/12/08 06:21:07;;;;;;;20.13;16.73;;;;;;;-0.35;100.00;99784.00;5065990;28;20201;-73
2022/12/08 06:23:33;;;;;;;20.03;17.70;;;;;;;-0.32;100.00;99782.41;5062111;28;20737;-73
2022/12/08 06:26:16;;;;;;;20.43;17.10;;;;;;;-0.26;100.00;99784.25;5069398;28;20209;-73
2022/12/08 06:28:42;;;;;;;20.80;17.00;;;;;;;-0.21;100.00;99784.34;5065098;28;20282;-73
2022/12/08 06:31:29;;;;;;;22.77;17.57;;;;;;;-0.17;100.00;99783.63;5062758;28;20189;-74
2022/12/08 06:33:54;;;;;;;21.50;17.33;;;;;;;-0.13;100.00;99787.09;5058014;28;20232;-73
2022/12/08 06:36:22;;;;;;;21.33;17.43;;;;;;;-0.10;100.00;99790.59;5065986;28;20217;-73
2022/12/08 06:38:48;;;;;;;21.23;16.63;;;;;;;-0.08;100.00;99791.50;5068215;28;20598;-73
2022/12/08 06:41:14;;;;;;;20.33;17.20;;;;;;;-0.03;100.00;99787.38;5067914;28;20211;-73
2022/12/08 06:43:40;;;;;;;21.53;16.93;;;;;;;0.00;100.00;99784.09;5062467;28;20196;-72
2022/12/08 06:46:08;;;;;;;19.83;16.77;;;;;;;0.03;100.00;99788.38;5064693;28;20252;-73
2022/12/08 06:48:34;;;;;;;19.37;16.77;;;;;;;0.03;100.00;99784.13;5065097;28;20243;-73
2022/12/08 06:51:14;;;;;;;19.80;17.10;;;;;;;0.04;100.00;99792.66;5068948;28;20227;-72
2022/12/08 06:53:40;;;;;;;21.70;17.67;;;;;;;0.02;100.00;99790.03;5071626;28;20228;-73
2022/12/08 06:56:06;;;;;;;20.03;17.07;;;;;;;0.00;100.00;99801.91;5072196;28;20200;-72
2022/12/08 06:58:31;;;;;;;20.50;17.47;;;;;;;-0.02;100.00;99796.75;5086543;28;20197;-72
2022/12/08 07:01:02;;;;;;;20.20;17.63;;;;;;;-0.03;100.00;99804.34;5069441;28;20191;-74
2022/12/08 07:03:27;;;;;;;21.07;17.70;;;;;;;-0.03;100.00;99807.75;5069106;28;20208;-74
2022/12/08 07:05:55;;;;;;;20.70;17.67;;;;;;;-0.01;100.00;99801.00;5070390;28;20672;-74
2022/12/08 07:08:20;;;;;;;25.20;21.70;;;;;;;0.05;100.00;99794.38;5067484;28;20268;-73
2022/12/08 07:10:46;;;;;;;26.87;23.17;;;;;;;0.09;100.00;99793.59;5052578;28;20198;-73
2022/12/08 07:13:11;;;;;;;26.67;21.50;;;;;;;0.13;100.00;99795.41;5068898;28;20211;-73
2022/12/08 07:15:36;;;;;;;23.87;20.27;;;;;;;0.14;100.00;99790.38;5069371;28;20727;-72
2022/12/08 07:18:02;;;;;;;29.00;24.40;;;;;;;0.18;100.00;99791.31;5074173;28;20665;-72
2022/12/08 07:20:27;;;;;;;33.60;28.40;;;;;;;0.28;100.00;99802.59;5062673;28;20196;-73
2022/12/08 07:22:53;;;;;;;35.20;29.17;;;;;;;0.34;100.00;99796.78;5077311;28;20632;-73
2022/12/08 07:25:19;;;;;;;42.83;32.63;;;;;;;0.41;100.00;99802.06;5073682;28;20254;-73
2022/12/08 07:27:44;;;;;;;49.17;36.53;;;;;;;0.50;100.00;99803.97;5061119;28;20218;-74
2022/12/08 07:30:11;;;;;;;48.00;36.90;;;;;;;0.56;100.00;99801.56;5074009;28;20189;-72
2022/12/08 07:32:37;;;;;;;43.37;33.20;;;;;;;0.66;100.00;99806.88;5087306;28;20216;-73
2022/12/08 07:35:03;;;;;;;48.40;36.17;;;;;;;0.71;100.00;99806.16;5104828;28;20161;-73
2022/12/08 07:37:29;;;;;;;39.47;33.03;;;;;;;0.77;100.00;99805.44;5106300;28;20623;-73
2022/12/08 07:39:54;;;;;;;39.57;31.43;;;;;;;0.82;100.00;99808.97;5072434;28;20185;-72
2022/12/08 07:42:19;;;;;;;43.77;32.40;;;;;;;0.85;100.00;99796.28;5081574;28;20241;-72
2022/12/08 07:44:45;;;;;;;52.10;39.47;;;;;;;0.88;100.00;99793.81;5056741;28;20185;-73
2022/12/08 07:47:10;;;;;;;56.50;41.67;;;;;;;0.91;100.00;99796.44;5055590;28;20267;-73
2022/12/08 07:49:36;;;;;;;65.70;50.10;;;;;;;0.93;100.00;99796.44;5052094;28;20268;-72
2022/12/08 07:52:01;;;;;;;63.90;48.77;;;;;;;0.97;100.00;99795.69;5050282;28;20216;-74
2022/12/08 07:54:26;;;;;;;77.97;57.93;;;;;;;1.01;100.00;99791.53;5067388;28;20190;-72
2022/12/08 07:56:52;;;;;;;81.97;60.47;;;;;;;1.04;100.00;99789.03;5074721;28;20189;-73
2022/12/08 07:59:18;;;;;;;70.87;55.07;;;;;;;1.05;100.00;99791.66;5066483;28;20182;-74
2022/12/08 08:01:43;;;;;;;48.93;40.20;;;;;;;1.05;100.00;99778.91;5078514;28;20213;-74
2022/12/08 08:04:09;;;;;;;37.20;30.67;;;;;;;1.06;100.00;99782.28;5072069;28;20431;-72
2022/12/08 08:06:36;;;;;;;32.40;27.43;;;;;;;1.06;100.00;99775.50;5075859;28;20196;-74
2022/12/08 08:09:02;;;;;;;26.73;23.23;;;;;;;1.07;100.00;99773.81;5071510;28;20193;-73
2022/12/08 08:11:28;;;;;;;23.20;20.70;;;;;;;1.08;100.00;99772.13;5071955;28;20201;-73
2022/12/08 08:13:55;;;;;;;22.73;20.30;;;;;;;1.09;100.00;99767.06;5067394;28;20194;-73
2022/12/08 08:16:21;;;;;;;21.50;19.23;;;;;;;1.12;100.00;99771.38;5069678;28;20200;-74
2022/12/08 08:18:48;;;;;;;21.77;19.47;;;;;;;1.14;100.00;99765.47;5067426;28;20662;-73
2022/12/08 08:21:13;;;;;;;25.17;22.47;;;;;;;1.18;100.00;99762.16;5065401;28;20628;-73
2022/12/08 08:23:39;;;;;;;22.90;20.63;;;;;;;1.22;100.00;99765.63;5046407;28;20312;-73
2022/12/08 08:26:04;;;;;;;23.63;20.63;;;;;;;1.27;100.00;99766.59;5067307;28;20300;-72
2022/12/08 08:28:30;;;;;;;22.57;19.20;;;;;;;1.32;100.00;99771.78;5068580;28;20784;-73
2022/12/08 08:30:55;;;;;;;20.47;18.37;;;;;;;1.38;100.00;99766.81;5064896;28;20186;-74
2022/12/08 08:33:21;;;;;;;21.20;19.00;;;;;;;1.45;100.00;99770.34;5065322;28;20784;-74
2022/12/08 08:35:46;;;;;;;21.23;18.63;;;;;;;1.48;100.00;99763.59;5061382;28;20213;-73
2022/12/08 08:38:11;;;;;;;21.30;19.03;;;;;;;1.55;100.00;99766.28;5064303;28;20237;-73
2022/12/08 08:40:37;;;;;;;23.57;21.10;;;;;;;1.62;100.00;99768.09;5071044;28;20189;-73
2022/12/08 08:43:03;;;;;;;21.90;19.60;;;;;;;1.67;100.00;99762.25;5069128;28;20205;-73
2022/12/08 08:45:29;;;;;;;21.07;18.73;;;;;;;1.73;100.00;99764.09;5069813;28;20198;-73
2022/12/08 08:47:55;;;;;;;21.83;19.53;;;;;;;1.80;100.00;99772.72;5066275;28;20213;-75
2022/12/08 08:50:20;;;;;;;20.63;18.53;;;;;;;1.84;100.00;99766.81;5070479;28;20692;-73
2022/12/08 08:52:46;;;;;;;20.73;18.60;;;;;;;1.90;100.00;99769.50;5055479;28;20247;-73
2022/12/08 08:55:11;;;;;;;20.37;18.27;;;;;;;1.97;100.00;99760.25;5087845;28;20217;-73
2022/12/08 08:57:36;;;;;;;19.60;17.60;;;;;;;2.05;100.00;99758.66;5069429;28;20677;-73
2022/12/08 09:00:04;;;;;;;21.10;19.00;;;;;;;2.12;100.00;99762.19;5075525;28;20272;-74
2022/12/08 09:02:30;;;;;;;19.43;17.40;;;;;;;2.20;100.00;99755.53;5069242;28;20209;-73
2022/12/08 09:04:55;;;;;;;20.13;18.13;;;;;;;2.29;100.00;99755.66;5054518;28;20218;-74
2022/12/08 09:07:20;;;;;;;20.03;18.17;;;;;;;2.36;100.00;99761.72;5052295;28;20209;-73
2022/12/08 09:09:46;;;;;;;20.50;18.40;;;;;;;2.43;100.00;99755.03;5071614;28;20190;-74
2022/12/08 09:12:12;;;;;;;19.90;17.90;;;;;;;2.51;100.00;99750.03;5065395;28;20721;-74
2022/12/08 09:14:37;;;;;;;20.57;18.47;;;;;;;2.61;100.00;99751.91;5073308;28;20194;-74
2022/12/08 09:17:03;;;;;;;20.07;18.00;;;;;;;2.68;100.00;99752.84;5072936;28;20703;-74
2022/12/08 09:19:28;;;;;;;18.97;17.17;;;;;;;2.71;100.00;99746.09;5061720;28;20281;-73
2022/12/08 09:21:54;;;;;;;18.07;16.37;;;;;;;2.78;100.00;99748.75;5070163;28;20217;-73
2022/12/08 09:24:19;;;;;;;17.30;15.60;;;;;;;2.87;100.00;99756.53;5069787;28;20227;-73
2022/12/08 09:26:45;;;;;;;17.13;15.53;;;;;;;2.96;100.00;99745.56;5069726;28;20224;-73
2022/12/08 09:29:12;;;;;;;17.50;15.77;;;;;;;3.04;100.00;99746.53;5075016;28;20186;-73
2022/12/08 09:31:38;;;;;;;17.03;15.33;;;;;;;3.13;100.00;99753.44;5063597;28;20210;-74
2022/12/08 09:34:03;;;;;;;16.63;15.17;;;;;;;3.22;100.00;99745.91;5064597;28;20864;-74
2022/12/08 09:36:29;;;;;;;18.43;16.57;;;;;;;3.32;100.00;99750.28;5071527;28;20196;-73
2022/12/08 09:38:55;;;;;;;16.83;15.27;;;;;;;3.41;100.00;99748.66;5069097;28;20545;-73
2022/12/08 09:41:40;;;;;;;16.60;15.00;;;;;;;3.50;100.00;99747.06;5051811;28;20627;-73
2022/12/08 09:44:24;;;;;;;16.37;14.70;;;;;;;3.61;100.00;99744.63;5066966;28;20260;-74
2022/12/08 09:46:51;;;;;;;16.33;14.83;;;;;;;3.73;100.00;99743.91;5065414;28;20216;-74
2022/12/08 09:49:21;;;;;;;16.37;14.67;;;;;;;3.87;100.00;99740.63;5049567;28;20186;-73
2022/12/08 09:51:46;;;;;;;15.13;13.53;;;;;;;4.01;100.00;99735.66;5070360;28;20210;-74
2022/12/08 09:54:23;;;;;;;16.23;14.67;;;;;;;4.13;100.00;99730.63;5088433;28;20213;-75
2022/12/08 09:56:52;;;;;;;15.40;14.00;;;;;;;4.26;100.00;99731.56;5095783;28;20189;-75
2022/12/08 09:59:30;;;;;;;15.60;14.10;;;;;;;4.39;100.00;99719.72;5062185;28;20678;-73
2022/12/08 10:01:55;;;;;;;15.80;14.30;;;;;;;4.53;100.00;99724.94;5069190;28;21056;-74
2022/12/08 10:04:36;;;;;;;15.87;14.37;;;;;;;4.73;100.00;99713.09;5067323;28;20314;-74
2022/12/08 10:07:25;;;;;;;15.17;13.73;;;;;;;4.93;100.00;99711.47;5072315;28;20211;-74
2022/12/08 10:10:15;;;;;;;15.87;14.37;;;;;;;5.13;100.00;99711.59;5079774;28;20192;-74
2022/12/08 10:12:50;;;;;;;16.10;14.50;;;;;;;5.33;100.00;99701.41;5047244;28;20206;-74
2022/12/08 10:15:37;;;;;;;15.40;13.90;;;;;;;5.51;100.00;99699.72;5050651;28;20192;-73
2022/12/08 10:18:10;;;;;;;15.67;14.17;;;;;;;5.67;100.00;99691.22;5068355;28;20184;-73
2022/12/08 10:20:39;;;;;;;14.73;13.30;;;;;;;5.82;100.00;99689.50;5061188;28;20780;-74
2022/12/08 10:23:18;;;;;;;14.30;12.93;;;;;;;5.97;100.00;99686.94;5068009;28;20209;-74
2022/12/08 10:25:49;;;;;;;16.23;14.73;;;;;;;6.08;100.00;99680.13;5070776;28;20190;-73
2022/12/08 10:28:14;;;;;;;16.07;14.57;;;;;;;6.18;100.00;99674.97;5065527;28;20208;-74
2022/12/08 10:30:40;;;;;;;15.27;13.80;;;;;;;6.25;100.00;99676.69;5071888;28;20198;-74
2022/12/08 10:33:13;;;;;;;15.67;14.17;;;;;;;6.27;100.00;99685.25;5061420;28;20207;-74
2022/12/08 10:35:45;;;;;;;15.50;14.00;;;;;;;6.23;100.00;99678.41;5067440;28;20301;-74
2022/12/08 10:38:25;;;;;;;16.73;15.13;;;;;;;6.13;100.00;99677.56;5048891;28;20177;-74
2022/12/08 10:40:53;;;;;;;16.20;14.63;;;;;;;6.05;100.00;99674.16;5068465;28;20212;-74
2022/12/08 10:43:25;;;;;;;16.33;14.77;;;;;;;6.00;100.00;99666.41;5072712;28;20235;-74
2022/12/08 10:45:51;;;;;;;15.80;14.30;;;;;;;5.99;100.00;99668.97;5073901;28;21041;-73
2022/12/08 10:48:32;;;;;;;14.93;13.37;;;;;;;5.97;100.00;99668.97;5077683;28;20219;-74
2022/12/08 10:50:58;;;;;;;13.90;12.60;;;;;;;5.93;100.00;99655.25;5075051;28;20244;-73
2022/12/08 10:53:27;;;;;;;14.13;12.80;;;;;;;5.91;100.00;99664.66;5070703;28;20192;-73
2022/12/08 10:56:02;;;;;;;14.30;12.90;;;;;;;5.96;100.00;99657.00;5072890;28;20223;-74
2022/12/08 10:58:29;;;;;;;15.20;13.80;;;;;;;5.97;100.00;99652.69;5065651;28;20179;-73
2022/12/08 11:00:59;;;;;;;14.33;13.00;;;;;;;5.95;100.00;99656.13;5070958;28;20181;-73
2022/12/08 11:03:51;;;;;;;15.03;13.63;;;;;;;5.87;100.00;99650.13;5068318;28;20236;-73
2022/12/08 11:06:29;;;;;;;15.87;14.30;;;;;;;5.79;100.00;99647.56;5048506;28;20193;-74
2022/12/08 11:09:21;;;;;;;15.67;14.17;;;;;;;5.75;100.00;99640.72;5050920;28;20815;-73
2022/12/08 11:11:48;;;;;;;14.60;13.20;;;;;;;5.73;100.00;99644.16;5052966;28;20584;-74
2022/12/08 11:14:43;;;;;;;15.10;13.70;;;;;;;5.67;100.00;99647.56;5060522;28;20193;-73
2022/12/08 11:17:28;;;;;;;15.47;14.17;;;;;;;5.58;100.00;99635.56;5057402;28;20255;-73
2022/12/08 11:20:07;;;;;;;14.80;13.50;;;;;;;5.59;100.00;99628.72;5041323;28;20205;-74
2022/12/08 11:22:43;;;;;;;17.70;16.03;;;;;;;5.61;100.00;99627.00;5063097;28;20234;-75
2022/12/08 11:25:11;;;;;;;14.37;13.03;;;;;;;5.61;100.00;99633.00;5066304;28;20203;-74
2022/12/08 11:27:40;;;;;;;16.57;15.07;;;;;;;5.63;100.00;99627.88;5069799;28;20208;-75